Time;durP1;ratioP1;P1;durP2;ratioP2;P2;SDS_P1;SDS_P2;PMS_P1;PMS_P2;Temp;Humidity;BMP_temperature;BMP_pressure;BME280_temperature;BME280_humidity;BME280_pressure;Samples;Min_cycle;Max_cycle;Signal;HPM_P1;HPM_P2
2022/08/17 00:01:23;;;;;;;8.00;7.30;;;20.10;99.90;;;;;;5019017;28;20451;-68
2022/08/17 00:03:50;;;;;;;8.43;7.63;;;20.10;99.90;;;;;;5013235;28;20456;-68
2022/08/17 00:06:22;;;;;;;8.13;7.60;;;20.10;99.90;;;;;;5014396;28;20466;-68
2022/08/17 00:08:51;;;;;;;10.80;7.50;;;20.00;99.90;;;;;;5017379;28;20461;-68
2022/08/17 00:11:23;;;;;;;8.10;7.30;;;19.90;99.90;;;;;;5021578;28;20468;-68
2022/08/17 00:13:52;;;;;;;8.33;7.73;;;19.90;99.90;;;;;;5019532;28;20437;-68
2022/08/17 00:16:28;;;;;;;8.60;7.10;;;19.80;99.90;;;;;;5017496;28;20802;-71
2022/08/17 00:18:53;;;;;;;8.70;7.90;;;19.80;99.90;;;;;;5014824;28;21580;-68
2022/08/17 00:21:21;;;;;;;9.20;8.30;;;19.70;99.90;;;;;;5019817;28;20444;-68
2022/08/17 00:23:47;;;;;;;9.00;8.10;;;19.70;99.90;;;;;;5015368;28;20183;-68
2022/08/17 00:26:13;;;;;;;8.10;7.50;;;19.80;99.90;;;;;;5017929;28;20473;-68
2022/08/17 00:28:39;;;;;;;7.60;7.10;;;19.80;99.90;;;;;;5019196;28;20478;-69
2022/08/17 00:31:07;;;;;;;8.07;7.47;;;19.80;99.90;;;;;;5020989;28;20456;-69
2022/08/17 00:33:33;;;;;;;8.73;8.13;;;19.70;99.90;;;;;;5022174;28;20432;-68
2022/08/17 00:36:00;;;;;;;8.80;8.10;;;19.60;99.90;;;;;;5017760;28;20599;-68
2022/08/17 00:38:28;;;;;;;8.87;8.17;;;19.60;99.90;;;;;;5024242;28;20447;-68
2022/08/17 00:40:58;;;;;;;7.50;6.90;;;19.60;99.90;;;;;;5020721;28;21274;-68
2022/08/17 00:43:45;;;;;;;8.17;7.67;;;19.70;99.90;;;;;;5024464;28;21053;-68
2022/08/17 00:46:16;;;;;;;8.80;8.20;;;19.60;99.90;;;;;;5019460;28;20469;-68
2022/08/17 00:48:42;;;;;;;9.20;8.00;;;19.60;99.90;;;;;;5021008;28;20463;-68
2022/08/17 00:51:20;;;;;;;8.80;8.20;;;19.60;99.90;;;;;;5018672;28;20453;-68
2022/08/17 00:54:23;;;;;;;9.13;8.43;;;19.60;99.90;;;;;;5019383;28;20798;-68
2022/08/17 00:57:04;;;;;;;9.67;8.67;;;19.50;99.90;;;;;;5017854;28;20544;-68
2022/08/17 00:59:36;;;;;;;8.40;7.80;;;19.40;99.90;;;;;;5017221;28;20840;-68
2022/08/17 01:02:03;;;;;;;8.57;7.97;;;19.40;99.90;;;;;;5025914;28;20441;-68
2022/08/17 01:04:30;;;;;;;9.87;8.87;;;19.30;99.90;;;;;;5021126;28;20458;-69
2022/08/17 01:06:57;;;;;;;9.33;8.57;;;19.30;99.90;;;;;;5019714;28;20471;-68
2022/08/17 01:09:23;;;;;;;8.83;8.13;;;19.30;99.90;;;;;;5017027;28;20457;-68
2022/08/17 01:11:50;;;;;;;9.70;8.70;;;19.30;99.90;;;;;;5025759;28;20988;-68
2022/08/17 01:14:20;;;;;;;11.53;9.40;;;19.30;99.90;;;;;;5023513;28;20512;-68
2022/08/17 01:16:48;;;;;;;9.90;8.90;;;19.30;99.90;;;;;;5015893;28;20986;-68
2022/08/17 01:19:19;;;;;;;10.00;9.10;;;19.30;99.90;;;;;;5016760;28;20830;-68
2022/08/17 01:21:50;;;;;;;8.47;7.87;;;19.30;99.90;;;;;;5016878;28;20440;-68
2022/08/17 01:24:16;;;;;;;8.53;7.93;;;19.30;99.90;;;;;;5022851;28;20843;-68
2022/08/17 01:26:43;;;;;;;8.00;7.40;;;19.40;99.90;;;;;;5019382;28;20539;-68
2022/08/17 01:29:10;;;;;;;9.53;8.83;;;19.40;99.90;;;;;;5015326;28;20480;-68
2022/08/17 01:31:40;;;;;;;9.13;8.53;;;19.40;99.90;;;;;;5022758;28;21027;-68
2022/08/17 01:34:09;;;;;;;10.00;9.10;;;19.30;99.90;;;;;;5026357;28;20503;-68
2022/08/17 01:36:37;;;;;;;11.43;8.00;;;19.20;99.90;;;;;;5020471;28;20448;-68
2022/08/17 01:39:12;;;;;;;10.00;9.20;;;19.20;99.90;;;;;;5018639;28;20449;-68
2022/08/17 01:41:39;;;;;;;9.10;8.40;;;19.20;99.90;;;;;;5035685;28;20472;-68
2022/08/17 01:44:06;;;;;;;9.13;8.33;;;19.20;99.90;;;;;;5022995;28;20463;-68
2022/08/17 01:46:34;;;;;;;10.77;8.27;;;19.20;99.90;;;;;;5024548;28;20546;-68
2022/08/17 01:49:04;;;;;;;8.63;8.03;;;19.20;99.90;;;;;;5018129;28;20809;-68
2022/08/17 01:51:31;;;;;;;9.83;9.13;;;19.10;99.90;;;;;;5022834;28;20433;-70
2022/08/17 01:54:00;;;;;;;9.80;9.10;;;19.10;99.90;;;;;;5023166;28;20867;-70
2022/08/17 01:56:28;;;;;;;9.87;9.17;;;19.10;99.90;;;;;;5023425;28;20480;-68
2022/08/17 01:58:53;;;;;;;9.50;8.67;;;18.90;99.90;;;;;;5019453;28;20442;-73
2022/08/17 02:01:22;;;;;;;10.17;9.30;;;19.00;99.90;;;;;;5020842;28;20437;-68
2022/08/17 02:03:47;;;;;;;8.63;7.93;;;19.00;99.90;;;;;;5016149;28;20182;-68
2022/08/17 02:06:13;;;;;;;9.23;8.33;;;19.10;99.90;;;;;;5019997;28;20473;-69
2022/08/17 02:08:38;;;;;;;10.27;9.37;;;19.10;99.90;;;;;;5024749;28;20288;-69
2022/08/17 02:11:08;;;;;;;10.53;9.63;;;19.20;99.90;;;;;;5022658;28;20220;-68
2022/08/17 02:13:33;;;;;;;9.77;8.80;;;19.10;99.90;;;;;;5020589;28;20723;-68
2022/08/17 02:16:00;;;;;;;10.37;9.57;;;19.10;99.90;;;;;;5019258;28;20461;-68
2022/08/17 02:18:26;;;;;;;8.87;8.27;;;19.10;99.90;;;;;;5019688;28;20690;-68
2022/08/17 02:20:52;;;;;;;10.17;9.17;;;19.10;99.90;;;;;;5020079;28;20459;-68
2022/08/17 02:23:21;;;;;;;9.20;8.60;;;19.10;99.90;;;;;;5023080;28;20486;-68
2022/08/17 02:25:47;;;;;;;11.57;8.47;;;19.10;99.90;;;;;;5019017;28;20466;-68
2022/08/17 02:28:13;;;;;;;8.87;8.23;;;19.20;99.90;;;;;;5019282;28;20452;-68
2022/08/17 02:30:40;;;;;;;9.20;8.50;;;19.20;99.90;;;;;;5020685;28;20866;-68
2022/08/17 02:33:07;;;;;;;9.07;8.37;;;19.20;99.90;;;;;;5017314;28;20540;-68
2022/08/17 02:35:34;;;;;;;9.80;9.00;;;19.20;99.90;;;;;;5021517;28;20534;-68
2022/08/17 02:38:00;;;;;;;9.37;8.63;;;19.10;99.90;;;;;;5023344;28;20436;-68
2022/08/17 02:40:25;;;;;;;10.17;9.37;;;19.00;99.90;;;;;;5023677;28;20994;-68
2022/08/17 02:42:51;;;;;;;9.90;9.20;;;18.90;99.90;;;;;;5020120;28;20456;-69
2022/08/17 02:45:20;;;;;;;10.93;9.00;;;18.90;99.90;;;;;;5022764;28;20179;-68
2022/08/17 02:47:46;;;;;;;11.07;10.10;;;18.90;99.90;;;;;;5023014;28;20182;-68
2022/08/17 02:50:14;;;;;;;9.47;8.77;;;18.80;99.90;;;;;;5015968;28;20817;-68
2022/08/17 02:52:41;;;;;;;9.60;8.90;;;18.80;99.90;;;;;;5020427;28;20187;-70
2022/08/17 02:55:13;;;;;;;9.03;8.40;;;18.80;99.90;;;;;;5015872;28;20576;-68
2022/08/17 02:57:38;;;;;;;10.87;10.07;;;18.80;99.90;;;;;;5021240;28;20461;-68
2022/08/17 03:00:09;;;;;;;14.83;9.77;;;18.80;99.90;;;;;;5012812;28;20463;-68
2022/08/17 03:02:42;;;;;;;9.97;9.23;;;18.80;99.90;;;;;;5015680;28;20224;-68
2022/08/17 03:05:09;;;;;;;11.23;9.20;;;18.70;99.90;;;;;;5015010;28;20445;-68
2022/08/17 03:07:37;;;;;;;9.00;8.10;;;18.70;99.90;;;;;;5014090;28;20433;-68
2022/08/17 03:10:03;;;;;;;9.13;8.53;;;18.80;99.90;;;;;;5017366;28;20532;-68
2022/08/17 03:12:32;;;;;;;9.80;9.10;;;18.80;99.90;;;;;;5026257;28;20441;-68
2022/08/17 03:15:02;;;;;;;10.77;9.80;;;18.80;99.90;;;;;;5018793;28;20917;-68
2022/08/17 03:17:27;;;;;;;9.87;9.10;;;18.80;99.90;;;;;;5017815;28;20443;-68
2022/08/17 03:19:53;;;;;;;9.73;8.30;;;18.80;99.90;;;;;;5019415;28;20811;-68
2022/08/17 03:22:18;;;;;;;10.23;9.10;;;18.80;99.90;;;;;;5024182;28;20547;-67
2022/08/17 03:24:44;;;;;;;10.40;9.17;;;18.80;99.90;;;;;;5019597;28;20183;-68
2022/08/17 03:27:10;;;;;;;9.50;8.80;;;18.80;99.90;;;;;;5021174;28;20236;-68
2022/08/17 03:29:35;;;;;;;10.60;9.70;;;18.80;99.90;;;;;;5019795;28;20202;-68
2022/08/17 03:32:11;;;;;;;9.87;9.00;;;18.70;99.90;;;;;;5019189;28;20183;-68
2022/08/17 03:34:36;;;;;;;9.50;8.90;;;18.70;99.90;;;;;;5015242;28;20869;-68
2022/08/17 03:37:02;;;;;;;9.80;8.80;;;18.70;99.90;;;;;;5015690;28;20908;-68
2022/08/17 03:39:27;;;;;;;9.13;8.20;;;18.70;99.90;;;;;;5021389;28;20268;-68
2022/08/17 03:42:00;;;;;;;10.27;9.37;;;18.70;99.90;;;;;;5021175;28;20568;-69
2022/08/17 03:44:25;;;;;;;9.77;8.97;;;18.80;99.90;;;;;;5020208;28;20190;-69
2022/08/17 03:57:48;;;;;;;9.60;8.90;;;18.70;99.90;;;;;;5020757;28;20981;-68
2022/08/17 04:00:14;;;;;;;9.17;8.47;;;18.70;99.90;;;;;;5020038;28;20442;-68
2022/08/17 04:02:41;;;;;;;9.00;8.40;;;18.70;99.90;;;;;;5019845;28;20183;-69
2022/08/17 04:05:08;;;;;;;9.30;8.50;;;18.70;99.90;;;;;;5018911;28;20958;-68
2022/08/17 04:07:34;;;;;;;11.23;10.37;;;18.70;99.90;;;;;;5018734;28;20439;-68
2022/08/17 04:09:59;;;;;;;10.03;9.07;;;18.70;99.90;;;;;;5016964;28;20473;-68
2022/08/17 04:12:29;;;;;;;10.07;9.27;;;18.60;99.90;;;;;;5016561;28;20437;-68
2022/08/17 04:14:55;;;;;;;10.40;9.60;;;18.60;99.90;;;;;;5026594;28;20651;-68
2022/08/17 04:17:27;;;;;;;10.30;9.57;;;18.60;99.90;;;;;;5025868;28;20518;-68
2022/08/17 04:19:53;;;;;;;10.47;9.57;;;18.60;99.90;;;;;;5020767;28;20453;-68
2022/08/17 04:22:19;;;;;;;10.67;9.53;;;18.60;99.90;;;;;;5017495;28;20635;-68
2022/08/17 04:24:44;;;;;;;10.03;8.70;;;18.50;99.90;;;;;;5017939;28;20541;-68
2022/08/17 04:27:10;;;;;;;11.53;9.63;;;18.50;99.90;;;;;;5020834;28;20263;-68
2022/08/17 04:29:36;;;;;;;13.00;11.90;;;18.50;99.90;;;;;;5020674;28;20249;-68
2022/08/17 04:32:02;;;;;;;11.47;10.27;;;18.50;99.90;;;;;;5015211;28;20186;-68
2022/08/17 04:34:27;;;;;;;12.77;11.57;;;18.60;99.90;;;;;;5026952;28;20793;-68
2022/08/17 04:36:53;;;;;;;10.77;9.67;;;18.60;99.90;;;;;;5019931;28;20198;-68
2022/08/17 04:39:18;;;;;;;13.90;10.90;;;18.50;99.90;;;;;;5024833;28;20253;-68
2022/08/17 04:44:28;;;;;;;9.37;8.67;;;18.50;99.90;;;;;;5019547;28;20180;-68
2022/08/17 04:46:53;;;;;;;10.37;9.13;;;18.50;99.90;;;;;;5022660;28;20469;-68
2022/08/17 04:49:19;;;;;;;9.03;8.33;;;18.50;99.90;;;;;;5020541;28;20650;-68
2022/08/17 04:51:46;;;;;;;9.50;8.80;;;18.60;99.90;;;;;;5018537;28;20209;-68
2022/08/17 04:54:14;;;;;;;9.60;8.70;;;18.70;99.90;;;;;;5019444;28;20194;-68
2022/08/17 04:56:40;;;;;;;9.03;8.40;;;18.70;99.90;;;;;;5019868;28;20847;-68
2022/08/17 04:59:12;;;;;;;9.00;8.20;;;18.70;99.90;;;;;;5019955;28;20440;-68
2022/08/17 05:01:39;;;;;;;8.90;8.03;;;18.80;99.90;;;;;;5012979;28;20249;-68
2022/08/17 05:04:09;;;;;;;9.97;9.17;;;18.80;99.90;;;;;;5019629;28;20593;-68
2022/08/17 05:06:35;;;;;;;9.40;8.70;;;18.80;99.90;;;;;;5023198;28;20983;-68
2022/08/17 05:09:00;;;;;;;8.80;8.10;;;18.90;99.90;;;;;;5020249;28;20460;-68
2022/08/17 05:11:28;;;;;;;8.87;8.07;;;19.00;99.90;;;;;;5017212;28;20261;-68
2022/08/17 05:13:55;;;;;;;10.47;9.47;;;19.10;99.90;;;;;;5015969;28;20185;-68
2022/08/17 05:16:22;;;;;;;10.43;9.43;;;19.10;99.90;;;;;;5023715;28;20444;-68
2022/08/17 05:18:48;;;;;;;10.27;9.47;;;19.20;99.90;;;;;;5026888;28;20874;-68
2022/08/17 05:21:14;;;;;;;11.33;10.13;;;19.30;99.90;;;;;;5021142;28;20464;-68
2022/08/17 05:23:41;;;;;;;10.03;9.13;;;19.50;99.90;;;;;;5030811;28;20545;-68
2022/08/17 05:26:08;;;;;;;10.73;9.70;;;19.70;99.90;;;;;;5022193;28;20457;-68
2022/08/17 05:28:33;;;;;;;10.67;9.67;;;19.90;99.90;;;;;;5021278;28;21005;-67
2022/08/17 05:31:02;;;;;;;11.30;10.37;;;20.10;99.90;;;;;;5019078;28;20438;-68
2022/08/17 05:33:33;;;;;;;11.27;10.40;;;20.30;99.90;;;;;;5025697;28;20189;-68
2022/08/17 05:36:01;;;;;;;11.43;10.30;;;20.20;99.90;;;;;;5029975;28;20485;-68
2022/08/17 05:38:28;;;;;;;9.00;8.27;;;20.60;99.90;;;;;;5024105;28;20873;-69
2022/08/17 05:40:54;;;;;;;10.10;9.00;;;20.50;99.90;;;;;;4995116;28;21454;-68
2022/08/17 05:43:26;;;;;;;8.93;8.03;;;20.70;99.90;;;;;;4997863;28;20501;-69
2022/08/17 05:46:12;;;;;;;11.47;8.63;;;20.90;99.90;;;;;;5024553;28;20553;-70
2022/08/17 05:48:44;;;;;;;8.50;7.70;;;21.20;99.90;;;;;;5022679;28;20457;-69
2022/08/17 05:51:40;;;;;;;10.07;9.07;;;21.50;99.90;;;;;;5008384;28;20445;-68
2022/08/17 05:54:16;;;;;;;9.60;7.97;;;21.80;99.90;;;;;;5015760;28;20518;-69
2022/08/17 05:57:19;;;;;;;10.00;8.67;;;22.00;99.90;;;;;;5021993;28;20472;-71
2022/08/17 06:00:22;;;;;;;8.40;7.60;;;22.10;99.90;;;;;;5014784;28;20483;-71
2022/08/17 06:03:07;;;;;;;8.30;7.50;;;22.50;99.90;;;;;;5015486;28;20938;-66
2022/08/17 06:05:56;;;;;;;9.50;8.03;;;22.70;99.90;;;;;;5019879;28;20467;-67
2022/08/17 06:08:36;;;;;;;8.60;7.80;;;23.00;99.90;;;;;;5014382;28;20604;-69
2022/08/17 06:11:21;;;;;;;8.43;7.50;;;23.20;99.90;;;;;;5019039;28;20437;-67
2022/08/17 06:14:11;;;;;;;10.00;9.03;;;23.30;99.90;;;;;;5019812;28;20437;-68
2022/08/17 06:16:42;;;;;;;9.53;8.10;;;23.30;99.90;;;;;;5019853;28;21034;-68
2022/08/17 06:19:26;;;;;;;10.03;8.53;;;23.30;99.90;;;;;;5018556;28;21029;-68
2022/08/17 06:21:53;;;;;;;9.07;8.27;;;23.40;99.90;;;;;;5021628;28;20445;-67
2022/08/17 06:24:37;;;;;;;9.23;8.53;;;23.70;99.90;;;;;;5022919;28;20453;-66
2022/08/17 06:27:25;;;;;;;8.57;7.97;;;24.00;99.90;;;;;;5026148;28;20496;-67
2022/08/17 06:30:10;;;;;;;7.90;7.30;;;24.20;99.90;;;;;;5010738;28;20479;-69
2022/08/17 06:32:42;;;;;;;8.20;7.53;;;24.40;99.90;;;;;;5014630;28;20475;-69
2022/08/17 06:35:11;;;;;;;9.03;7.20;;;24.50;99.90;;;;;;5020839;28;20807;-68
2022/08/17 06:38:10;;;;;;;7.50;6.77;;;24.60;99.90;;;;;;5015475;28;20437;-68
2022/08/17 06:40:44;;;;;;;8.03;7.23;;;24.60;99.90;;;;;;5017141;28;20444;-67
2022/08/17 06:43:32;;;;;;;7.50;7.00;;;24.90;99.90;;;;;;5021790;28;20433;-69
2022/08/17 06:46:06;;;;;;;9.10;8.20;;;25.20;99.90;;;;;;5031039;28;20651;-67
2022/08/17 06:48:56;;;;;;;8.03;6.70;;;25.70;99.90;;;;;;5024877;28;20451;-69
2022/08/17 06:51:35;;;;;;;7.87;7.23;;;26.30;99.90;;;;;;5014539;28;21011;-68
2022/08/17 06:54:23;;;;;;;15.00;13.70;;;26.60;99.90;;;;;;5019833;28;20537;-69
2022/08/17 06:56:51;;;;;;;13.93;12.70;;;26.50;99.90;;;;;;5038750;28;20463;-66
2022/08/17 06:59:23;;;;;;;8.30;7.50;;;26.60;99.50;;;;;;5024855;28;20448;-71
2022/08/17 07:01:51;;;;;;;8.40;7.60;;;26.50;98.90;;;;;;5037191;28;20815;-67
2022/08/17 07:04:25;;;;;;;8.27;7.70;;;26.60;98.80;;;;;;5045241;28;20439;-68
2022/08/17 07:08:00;;;;;;;8.23;7.43;;;26.80;98.00;;;;;;5022284;28;21067;-67
2022/08/17 07:09:48;;;;;;;8.10;7.37;;;27.00;97.40;;;;;;5019415;28;20574;-68
2022/08/17 07:12:21;;;;;;;7.83;7.30;;;26.90;97.50;;;;;;5026877;28;20449;-67
2022/08/17 07:14:55;;;;;;;7.97;7.37;;;26.50;97.70;;;;;;5024920;28;20522;-67
2022/08/17 07:17:23;;;;;;;8.30;7.47;;;26.40;98.10;;;;;;5026984;28;20475;-68
2022/08/17 07:19:51;;;;;;;7.60;6.90;;;26.50;97.70;;;;;;5019206;28;20840;-67
2022/08/17 07:22:41;;;;;;;7.53;6.83;;;26.70;97.40;;;;;;5039582;28;20432;-70
2022/08/17 07:25:09;;;;;;;6.90;6.37;;;27.00;96.50;;;;;;5021245;28;20486;-68
2022/08/17 07:27:40;;;;;;;7.77;7.13;;;27.30;96.00;;;;;;5023881;28;20438;-69
2022/08/17 07:30:10;;;;;;;7.83;7.13;;;27.60;95.20;;;;;;5013908;28;20461;-67
2022/08/17 07:32:44;;;;;;;7.77;7.17;;;27.90;94.70;;;;;;5020010;28;20437;-67
2022/08/17 07:35:14;;;;;;;7.40;6.77;;;28.20;93.60;;;;;;5034894;28;20437;-70
2022/08/17 07:37:42;;;;;;;7.40;6.90;;;28.70;92.60;;;;;;5043297;28;20431;-69
2022/08/17 07:40:23;;;;;;;7.90;7.30;;;28.90;91.60;;;;;;5020361;28;20441;-71
2022/08/17 07:43:02;;;;;;;8.20;7.60;;;29.30;90.80;;;;;;4996874;28;20445;-67
2022/08/17 07:48:20;;;;;;;7.30;6.60;;;29.70;88.70;;;;;;5030759;28;20454;-66
2022/08/17 07:50:46;;;;;;;7.20;6.60;;;29.70;87.90;;;;;;5026219;28;20441;-65
2022/08/17 07:53:24;;;;;;;8.00;7.30;;;29.40;87.20;;;;;;5019797;28;20807;-65
2022/08/17 07:55:52;;;;;;;8.10;7.40;;;29.20;87.70;;;;;;5020312;28;20453;-65
2022/08/17 07:58:22;;;;;;;8.53;7.93;;;28.90;88.00;;;;;;5017324;28;20865;-65
2022/08/17 08:01:08;;;;;;;8.03;7.07;;;28.60;88.10;;;;;;5025965;28;20988;-65
2022/08/17 08:03:41;;;;;;;7.30;6.80;;;28.30;88.20;;;;;;5020921;28;21028;-65
2022/08/17 08:06:19;;;;;;;7.87;7.37;;;28.20;88.70;;;;;;5017522;28;20466;-65
2022/08/17 08:08:50;;;;;;;8.53;7.57;;;28.20;88.80;;;;;;5020593;28;20461;-65
2022/08/17 08:11:29;;;;;;;8.07;7.37;;;28.30;88.70;;;;;;5011871;28;20934;-65
2022/08/17 08:14:15;;;;;;;9.97;9.07;;;28.20;88.80;;;;;;5031652;28;20505;-65
2022/08/17 08:16:58;;;;;;;8.83;8.13;;;28.10;88.90;;;;;;5026516;28;20552;-65
2022/08/17 08:19:24;;;;;;;8.07;7.43;;;28.10;89.60;;;;;;5020524;28;20504;-65
2022/08/17 08:22:17;;;;;;;8.03;7.43;;;28.00;89.50;;;;;;5021345;28;20445;-65
2022/08/17 08:25:00;;;;;;;7.50;7.00;;;27.80;90.10;;;;;;5020527;28;20485;-65
2022/08/17 08:27:44;;;;;;;9.07;8.37;;;27.60;90.50;;;;;;5028624;28;20464;-65
2022/08/17 08:30:17;;;;;;;8.10;7.33;;;27.50;90.80;;;;;;5015927;28;20465;-68
2022/08/17 08:33:03;;;;;;;7.90;7.20;;;27.40;90.90;;;;;;5036138;28;20494;-66
2022/08/17 08:35:33;;;;;;;11.50;8.03;;;27.30;90.80;;;;;;5027795;28;20998;-71
2022/08/17 08:38:23;;;;;;;8.10;7.40;;;27.20;90.90;;;;;;5036120;28;20480;-66
2022/08/17 08:41:00;;;;;;;9.00;8.00;;;27.10;91.10;;;;;;5020353;28;20485;-67
2022/08/17 08:43:44;;;;;;;8.07;7.30;;;27.00;91.60;;;;;;5031241;28;20467;-67
2022/08/17 08:46:29;;;;;;;7.63;7.13;;;26.90;92.10;;;;;;5012816;28;20457;-67
2022/08/17 08:49:26;;;;;;;8.30;7.70;;;26.70;92.20;;;;;;5030530;28;20469;-67
2022/08/17 08:51:51;;;;;;;8.47;7.77;;;26.60;92.50;;;;;;5015591;28;21049;-67
2022/08/17 08:54:27;;;;;;;7.23;6.73;;;26.50;92.90;;;;;;5039033;28;20531;-67
2022/08/17 08:57:04;;;;;;;9.30;8.60;;;26.50;92.90;;;;;;5027371;28;20256;-68
2022/08/17 08:59:44;;;;;;;8.87;8.03;;;26.50;93.30;;;;;;5016221;28;20444;-68
2022/08/17 09:02:43;;;;;;;10.67;9.57;;;26.50;94.90;;;;;;5027953;28;20435;-68
2022/08/17 09:05:29;;;;;;;9.03;8.43;;;26.50;97.10;;;;;;4969318;28;20930;-68
2022/08/17 09:08:10;;;;;;;8.80;8.00;;;26.40;99.70;;;;;;5032603;28;20446;-68
2022/08/17 09:10:54;;;;;;;7.77;7.07;;;26.20;99.90;;;;;;5021861;28;20493;-68
2022/08/17 09:13:22;;;;;;;10.60;9.50;;;26.00;99.90;;;;;;5025980;28;20449;-65
2022/08/17 09:15:57;;;;;;;8.50;7.70;;;26.00;99.90;;;;;;5022758;28;20448;-66
2022/08/17 09:18:33;;;;;;;9.70;8.90;;;25.90;99.90;;;;;;5013183;28;20464;-66
2022/08/17 09:21:04;;;;;;;9.83;8.87;;;25.70;99.90;;;;;;5012985;28;20441;-66
2022/08/17 09:23:41;;;;;;;10.10;9.30;;;25.60;99.90;;;;;;5022336;28;20440;-66
2022/08/17 09:26:45;;;;;;;10.23;9.43;;;25.40;99.90;;;;;;5018863;28;20599;-66
2022/08/17 09:29:13;;;;;;;10.63;9.83;;;25.00;99.90;;;;;;5029808;28;20455;-65
2022/08/17 09:32:02;;;;;;;9.83;9.13;;;24.80;99.90;;;;;;5016745;28;20821;-65
2022/08/17 09:34:35;;;;;;;10.50;9.33;;;25.00;99.90;;;;;;5040002;28;20894;-65
2022/08/17 09:37:06;;;;;;;12.10;11.03;;;25.00;99.90;;;;;;5019846;28;20963;-66
2022/08/17 09:40:00;;;;;;;9.37;8.73;;;25.10;99.90;;;;;;5033761;28;20490;-66
2022/08/17 09:42:32;;;;;;;10.87;10.00;;;25.00;99.90;;;;;;5034578;28;20533;-66
2022/08/17 09:45:01;;;;;;;9.73;8.83;;;24.80;99.90;;;;;;5031356;28;20445;-66
2022/08/17 09:47:45;;;;;;;9.27;8.37;;;24.90;99.90;;;;;;5033943;28;21039;-66
2022/08/17 09:50:57;;;;;;;9.60;8.90;;;24.80;99.90;;;;;;5009475;28;20805;-66
2022/08/17 09:53:23;;;;;;;10.67;9.67;;;24.80;99.90;;;;;;4946160;28;20836;-66
2022/08/17 09:56:14;;;;;;;19.10;17.37;;;24.70;99.90;;;;;;4942538;28;20464;-66
2022/08/17 09:58:54;;;;;;;10.67;9.73;;;24.60;99.90;;;;;;4987481;28;20255;-66
2022/08/17 10:01:36;;;;;;;10.00;9.30;;;24.70;99.90;;;;;;5009588;28;20473;-66
2022/08/17 10:04:31;;;;;;;10.57;7.93;;;25.00;99.90;;;;;;5017242;28;20472;-66
2022/08/17 10:07:35;;;;;;;9.07;8.47;;;24.90;99.90;;;;;;5017570;28;20468;-66
2022/08/17 10:10:28;;;;;;;9.47;8.80;;;24.60;99.90;;;;;;5003271;28;21053;-66
2022/08/17 10:13:03;;;;;;;9.83;9.03;;;25.20;99.90;;;;;;5021473;28;20536;-66
2022/08/17 10:15:56;;;;;;;9.40;8.67;;;25.50;99.90;;;;;;5013412;28;20792;-65
2022/08/17 10:18:38;;;;;;;10.23;9.10;;;25.70;99.90;;;;;;5023520;28;20439;-64
2022/08/17 10:27:12;;;;;;;27.53;23.83;;;25.70;99.90;;;;;;5025517;28;20463;-67
2022/08/17 10:29:49;;;;;;;41.83;32.00;;;25.70;99.90;;;;;;5022153;28;20465;-66
2022/08/17 10:32:30;;;;;;;13.67;11.63;;;25.60;99.90;;;;;;5017430;28;20979;-66
2022/08/17 10:35:27;;;;;;;10.83;9.83;;;25.80;99.90;;;;;;5028469;28;20431;-65
2022/08/17 10:38:05;;;;;;;11.10;10.13;;;26.20;99.90;;;;;;5016785;28;20728;-66
2022/08/17 10:41:02;;;;;;;12.33;11.07;;;26.50;99.90;;;;;;5017314;28;20524;-66
2022/08/17 10:43:51;;;;;;;11.00;10.10;;;26.40;99.90;;;;;;5040457;28;20486;-64
2022/08/17 10:46:55;;;;;;;11.27;10.37;;;26.30;99.90;;;;;;5019438;28;20459;-66
2022/08/17 10:49:25;;;;;;;9.90;8.97;;;26.00;99.90;;;;;;5016047;28;20468;-66
2022/08/17 10:51:53;;;;;;;10.37;9.50;;;25.80;99.90;;;;;;5015051;28;20437;-66
2022/08/17 10:54:36;;;;;;;10.20;9.43;;;25.50;99.90;;;;;;5029775;28;20560;-68
2022/08/17 10:57:01;;;;;;;11.03;10.10;;;25.10;99.90;;;;;;5024858;28;20796;-66
2022/08/17 10:59:49;;;;;;;8.20;7.60;;;24.60;99.90;;;;;;5019501;28;20445;-65
2022/08/17 11:02:49;;;;;;;9.10;8.30;;;24.20;99.90;;;;;;5010477;28;20265;-65
2022/08/17 11:05:36;;;;;;;8.80;8.00;;;24.10;99.90;;;;;;5016578;28;20462;-65
2022/08/17 11:08:13;;;;;;;12.10;11.00;;;23.90;99.90;;;;;;5019587;28;20494;-65
2022/08/17 11:10:49;;;;;;;9.47;8.47;;;23.70;99.90;;;;;;5010548;28;20532;-65
2022/08/17 11:13:23;;;;;;;9.33;8.60;;;23.50;99.90;;;;;;5018749;28;20437;-66
2022/08/17 11:16:10;;;;;;;9.00;8.37;;;23.60;99.90;;;;;;5018238;28;20449;-65
2022/08/17 11:19:13;;;;;;;9.50;8.80;;;23.50;99.90;;;;;;5011524;28;20809;-65
2022/08/17 11:21:41;;;;;;;9.37;8.57;;;23.50;99.90;;;;;;5014863;28;20435;-65
2022/08/17 11:24:30;;;;;;;8.77;8.10;;;23.50;99.90;;;;;;5018343;28;20447;-65
2022/08/17 11:27:18;;;;;;;8.07;7.43;;;23.60;99.90;;;;;;5020864;28;20538;-65
2022/08/17 11:29:59;;;;;;;9.47;8.03;;;23.50;99.90;;;;;;5017689;28;20471;-65
2022/08/17 11:32:50;;;;;;;8.70;8.10;;;23.20;99.90;;;;;;5017642;28;20433;-67
2022/08/17 11:35:30;;;;;;;8.70;8.07;;;23.20;99.90;;;;;;5018688;28;20886;-66
2022/08/17 11:38:24;;;;;;;8.47;7.77;;;23.10;99.90;;;;;;5017013;28;20516;-67
2022/08/17 11:41:18;;;;;;;8.87;7.97;;;22.90;99.90;;;;;;5026188;28;20428;-67
2022/08/17 11:44:12;;;;;;;8.93;8.13;;;22.80;99.90;;;;;;5008767;28;20448;-67
2022/08/17 11:53:01;;;;;;;8.50;7.80;;;23.00;99.90;;;;;;5025150;28;20452;-68
2022/08/17 11:55:33;;;;;;;8.63;7.80;;;23.10;99.90;;;;;;5028327;28;20438;-68
2022/08/17 11:58:45;;;;;;;9.30;8.50;;;23.30;99.90;;;;;;5024256;28;20570;-68
2022/08/17 12:01:32;;;;;;;9.10;8.50;;;23.20;99.90;;;;;;5030753;28;20494;-67
2022/08/17 12:04:30;;;;;;;9.20;8.60;;;23.50;99.90;;;;;;5033761;28;20606;-68
2022/08/17 12:07:11;;;;;;;10.63;8.03;;;23.60;99.90;;;;;;5014673;28;20466;-67
2022/08/17 12:09:41;;;;;;;9.40;8.67;;;23.60;99.90;;;;;;5020713;28;20453;-67
2022/08/17 12:12:15;;;;;;;8.30;7.53;;;24.00;99.90;;;;;;5033049;28;20437;-68
2022/08/17 12:14:47;;;;;;;8.90;8.00;;;24.40;99.90;;;;;;5014169;28;20521;-68
2022/08/17 12:17:20;;;;;;;8.40;7.80;;;24.70;99.90;;;;;;5027731;28;21218;-68
2022/08/17 12:19:46;;;;;;;8.80;7.93;;;25.00;99.90;;;;;;5035163;28;20448;-67
2022/08/17 12:22:15;;;;;;;9.03;8.13;;;25.00;99.90;;;;;;5042500;28;20829;-68
2022/08/17 12:24:50;;;;;;;9.23;8.50;;;25.00;99.90;;;;;;5031980;28;20189;-68
2022/08/17 12:27:24;;;;;;;8.40;7.77;;;25.10;99.90;;;;;;5019525;28;20846;-68
2022/08/17 12:29:52;;;;;;;7.70;7.10;;;25.20;99.90;;;;;;5027859;28;20526;-68
2022/08/17 12:32:19;;;;;;;8.40;7.70;;;25.40;99.90;;;;;;5022628;28;20518;-68
2022/08/17 12:34:48;;;;;;;8.50;7.43;;;25.50;99.90;;;;;;5035686;28;20903;-68
2022/08/17 12:37:23;;;;;;;8.97;8.17;;;25.20;99.90;;;;;;5023706;28;20481;-65
2022/08/17 12:39:51;;;;;;;8.57;7.97;;;25.20;99.90;;;;;;5033029;28;20781;-68
2022/08/17 12:42:28;;;;;;;9.47;8.53;;;25.60;99.90;;;;;;5021313;28;20442;-67
2022/08/17 12:44:54;;;;;;;10.97;10.07;;;25.90;99.90;;;;;;5033649;28;21046;-66
2022/08/17 12:47:20;;;;;;;9.17;8.40;;;26.10;99.90;;;;;;5032791;28;21021;-65
2022/08/17 12:49:49;;;;;;;7.73;7.13;;;26.40;99.90;;;;;;5024962;28;20495;-66
2022/08/17 12:52:31;;;;;;;7.57;7.07;;;26.70;99.90;;;;;;5026258;28;20449;-66
2022/08/17 12:55:25;;;;;;;6.40;5.93;;;27.20;99.90;;;;;;5039229;28;21125;-66
2022/08/17 12:57:53;;;;;;;6.87;6.33;;;28.10;99.90;;;;;;5014855;28;20461;-67
2022/08/17 13:00:30;;;;;;;7.10;6.60;;;30.80;99.90;;;;;;5022346;28;20457;-67
2022/08/17 13:03:04;;;;;;;6.47;5.87;;;33.70;96.40;;;;;;5020274;28;20499;-67
2022/08/17 13:06:00;;;;;;;6.03;5.60;;;36.20;92.30;;;;;;5026081;28;20516;-67
2022/08/17 13:08:34;;;;;;;6.67;6.10;;;38.20;82.70;;;;;;5029622;28;20502;-67
2022/08/17 13:11:08;;;;;;;6.50;6.00;;;38.90;74.30;;;;;;5031667;28;20473;-67
2022/08/17 13:13:36;;;;;;;5.50;5.20;;;40.30;69.20;;;;;;5040115;28;20439;-65
2022/08/17 13:16:04;;;;;;;5.40;5.00;;;41.20;59.50;;;;;;5032758;28;20551;-65
2022/08/17 13:18:40;;;;;;;4.97;4.60;;;41.40;54.90;;;;;;5036235;28;20889;-65
2022/08/17 13:21:17;;;;;;;5.47;5.17;;;41.10;50.60;;;;;;5024783;28;20436;-65
2022/08/17 13:23:57;;;;;;;6.00;5.60;;;39.50;53.00;;;;;;5032875;28;20821;-65
2022/08/17 13:26:33;;;;;;;5.80;5.40;;;38.70;54.30;;;;;;5030846;28;20519;-66
2022/08/17 13:29:00;;;;;;;5.43;5.13;;;38.90;54.50;;;;;;5035221;28;20471;-66
2022/08/17 13:31:28;;;;;;;6.07;5.67;;;39.20;52.20;;;;;;5036402;28;20519;-65
2022/08/17 13:34:16;;;;;;;5.60;5.30;;;38.90;53.90;;;;;;5018856;28;20496;-65
2022/08/17 13:36:42;;;;;;;5.10;4.80;;;39.30;50.00;;;;;;5027308;28;20893;-66
2022/08/17 13:39:26;;;;;;;5.17;4.87;;;39.50;50.30;;;;;;5029907;28;20861;-65
2022/08/17 13:41:54;;;;;;;6.00;5.50;;;39.00;46.90;;;;;;5024314;28;20951;-65
2022/08/17 13:44:29;;;;;;;5.47;5.17;;;38.70;49.90;;;;;;5027368;28;20433;-67
2022/08/17 13:46:55;;;;;;;5.47;5.07;;;38.60;47.20;;;;;;5021506;28;20465;-67
2022/08/17 13:49:21;;;;;;;5.30;4.97;;;36.70;47.60;;;;;;5019995;28;20539;-66